< < Back
Terminal Aerodrome Forecast


Current Version              Previous Versions:   1  2  3  4  5  6  7  8  9  

Terminal Aerodrome Forecast

736
FTUS44 KMRX 231720
TAFCHA
TAF
KCHA 231720Z 2318/2418 01010G16KT P6SM SKC
     FM240100 04003KT P6SM SKC=



Latest METAR

532
SAUS80 KWBC 240700 CCA
MTRCHA
METAR KCHA 240653Z AUTO 00000KT 10SM CLR 09/06 A2998 RMK AO2 SLP147
T00940056


USA.gov is the U.S. government's official web portal to all federal, state and local government web resources and services.